Time;durP1;ratioP1;P1;durP2;ratioP2;P2;SDS_P1;SDS_P2;PMS_P1;PMS_P2;Temp;Humidity;BMP_temperature;BMP_pressure;BME280_temperature;BME280_humidity;BME280_pressure;Samples;Min_cycle;Max_cycle;Signal;HPM_P1;HPM_P2
2022/01/26 00:06:38;;;;;;;46.03;25.58;;;;;;;;;;5014300;28;20457;-71
2022/01/26 00:09:05;;;;;;;50.65;25.08;;;;;;;;;;5012754;28;20038;-70
2022/01/26 00:11:32;;;;;;;46.73;22.80;;;;;;;;;;5013354;28;20057;-70
2022/01/26 00:14:00;;;;;;;47.22;24.20;;;;;;;;;;5013972;28;20311;-70
2022/01/26 00:16:28;;;;;;;;;;;;;;;;;;5013316;28;20050;-70
2022/01/26 00:18:59;;;;;;;53.05;24.75;;;;;;;;;;5012576;28;20347;-70
2022/01/26 00:21:33;;;;;;;47.90;23.20;;;;;;;;;;5012762;28;20053;-70
2022/01/26 00:24:24;;;;;;;56.65;25.60;;;;;;;;;;5013736;28;20104;-70
2022/01/26 00:29:21;;;;;;;49.10;24.77;;;;;;;;;;5014094;28;20084;-70
2022/01/26 00:40:08;;;;;;;46.67;23.00;;;;;;;;;;5013768;28;20077;-70
2022/01/26 00:42:38;;;;;;;44.95;23.35;;;;;;;;;;5013799;28;20049;-70
2022/01/26 00:45:05;;;;;;;47.85;24.42;;;;;;;;;;5013593;28;20054;-70
2022/01/26 00:47:32;;;;;;;47.92;23.42;;;;;;;;;;5013597;28;20089;-70
2022/01/26 00:50:04;;;;;;;49.80;24.55;;;;;;;;;;5012194;28;20081;-70
2022/01/26 00:52:39;;;;;;;47.53;24.00;;;;;;;;;;5013184;28;20092;-70
2022/01/26 00:55:07;;;;;;;46.90;23.88;;;;;;;;;;5011887;28;20100;-70
2022/01/26 00:57:34;;;;;;;49.08;24.83;;;;;;;;;;5013397;28;20059;-70
2022/01/26 01:00:01;;;;;;;47.28;23.50;;;;;;;;;;5013158;28;20050;-70
2022/01/26 01:02:29;;;;;;;48.70;24.60;;;;;;;;;;5013019;28;20042;-70
2022/01/26 01:04:59;;;;;;;44.30;23.42;;;;;;;;;;5013341;28;20054;-69
2022/01/26 01:07:25;;;;;;;52.10;24.75;;;;;;;;;;5012899;28;20065;-70
2022/01/26 01:09:52;;;;;;;43.47;22.92;;;;;;;;;;5012947;28;20111;-70
2022/01/26 01:12:18;;;;;;;46.88;23.40;;;;;;;;;;5013036;28;20112;-70
2022/01/26 01:14:45;;;;;;;48.65;23.83;;;;;;;;;;5013036;28;20046;-69
2022/01/26 01:17:22;;;;;;;44.22;22.15;;;;;;;;;;5012927;28;20418;-70
2022/01/26 01:20:09;;;;;;;46.00;22.50;;;;;;;;;;5012889;28;20423;-70
2022/01/26 01:25:45;;;;;;;44.50;24.88;;;;;;;;;;5012774;28;20050;-70
2022/01/26 01:30:33;;;;;;;48.95;25.27;;;;;;;;;;5012861;28;20116;-70
2022/01/26 01:33:08;;;;;;;47.20;24.10;;;;;;;;;;5012675;28;20085;-70
2022/01/26 01:35:37;;;;;;;45.50;24.15;;;;;;;;;;5012521;28;20049;-70
2022/01/26 01:38:11;;;;;;;48.90;23.73;;;;;;;;;;5012299;28;20537;-70
2022/01/26 01:40:38;;;;;;;48.33;24.27;;;;;;;;;;5012519;28;20050;-70
2022/01/26 01:43:06;;;;;;;49.08;24.65;;;;;;;;;;5012307;28;20084;-70
2022/01/26 01:45:34;;;;;;;45.28;24.02;;;;;;;;;;5012262;28;20099;-70
2022/01/26 01:48:01;;;;;;;49.08;24.05;;;;;;;;;;5011295;28;20064;-70
2022/01/26 01:50:28;;;;;;;48.03;24.08;;;;;;;;;;5012362;28;20053;-70
2022/01/26 01:53:00;;;;;;;50.33;23.65;;;;;;;;;;5012319;28;20077;-70
2022/01/26 01:55:28;;;;;;;44.58;23.98;;;;;;;;;;5010892;28;20097;-70
2022/01/26 01:57:55;;;;;;;45.92;24.05;;;;;;;;;;5012151;28;20468;-70
2022/01/26 02:00:23;;;;;;;43.93;22.67;;;;;;;;;;5012769;28;20046;-70
2022/01/26 02:02:49;;;;;;;44.72;22.73;;;;;;;;;;5012361;28;20477;-70
2022/01/26 02:05:17;;;;;;;47.72;24.90;;;;;;;;;;5012145;28;20052;-70
2022/01/26 02:07:44;;;;;;;46.92;23.30;;;;;;;;;;5012121;28;20100;-70
2022/01/26 02:10:10;;;;;;;45.35;23.25;;;;;;;;;;5012096;28;20053;-70
2022/01/26 02:12:45;;;;;;;42.90;22.83;;;;;;;;;;5011673;28;20065;-70
2022/01/26 02:15:17;;;;;;;44.45;22.27;;;;;;;;;;5012219;28;20113;-70
2022/01/26 02:55:58;;;;;;;42.92;22.65;;;;;;;;;;5015499;28;20184;-70
2022/01/26 03:01:29;;;;;;;48.50;23.05;;;;;;;;;;5015559;28;20041;-70
2022/01/26 03:06:46;;;;;;;43.45;21.80;;;;;;;;;;5015280;28;20108;-70
2022/01/26 03:09:15;;;;;;;42.50;22.17;;;;;;;;;;5014049;28;20046;-70
2022/01/26 03:11:45;;;;;;;43.67;20.67;;;;;;;;;;5014902;28;20115;-70
2022/01/26 03:14:24;;;;;;;39.40;19.83;;;;;;;;;;5014979;28;20054;-70
2022/01/26 03:16:58;;;;;;;40.72;21.13;;;;;;;;;;5014994;28;20104;-70
2022/01/26 03:19:38;;;;;;;43.15;21.60;;;;;;;;;;5015299;28;20588;-70
2022/01/26 03:35:30;;;;;;;39.25;19.60;;;;;;;;;;5014890;28;20560;-70
2022/01/26 03:37:58;;;;;;;40.38;21.05;;;;;;;;;;5013743;28;20129;-70
2022/01/26 03:40:31;;;;;;;;;;;;;;;;;;5015029;28;20116;-70
2022/01/26 03:42:58;;;;;;;39.70;20.45;;;;;;;;;;5001513;28;19925;-70
2022/01/26 03:45:25;;;;;;;44.95;20.73;;;;;;;;;;5013581;28;20374;-70
2022/01/26 03:47:53;;;;;;;44.28;21.67;;;;;;;;;;5014299;28;20046;-70
2022/01/26 03:50:19;;;;;;;38.83;20.88;;;;;;;;;;5014765;28;20109;-70
2022/01/26 03:52:46;;;;;;;41.63;20.38;;;;;;;;;;5014226;28;20107;-70
2022/01/26 03:55:12;;;;;;;46.33;22.13;;;;;;;;;;5014328;28;20375;-70
2022/01/26 03:57:38;;;;;;;41.33;21.88;;;;;;;;;;5014428;28;20050;-70
2022/01/26 04:00:07;;;;;;;44.13;21.60;;;;;;;;;;5014181;28;20050;-70
2022/01/26 04:02:34;;;;;;;44.22;22.58;;;;;;;;;;5014386;28;20108;-70
2022/01/26 04:05:04;;;;;;;42.07;21.43;;;;;;;;;;5014255;28;20422;-70
2022/01/26 04:07:31;;;;;;;42.30;21.67;;;;;;;;;;5014121;28;20490;-70
2022/01/26 04:10:05;;;;;;;46.42;20.52;;;;;;;;;;5013929;28;20101;-70
2022/01/26 04:12:34;;;;;;;46.03;21.17;;;;;;;;;;5013041;28;20135;-70
2022/01/26 04:15:09;;;;;;;43.13;20.70;;;;;;;;;;5013851;28;20069;-70
2022/01/26 04:17:35;;;;;;;46.20;21.17;;;;;;;;;;5014234;28;20050;-70
2022/01/26 04:20:02;;;;;;;39.10;20.38;;;;;;;;;;5013993;28;20127;-70
2022/01/26 04:22:37;;;;;;;48.33;21.63;;;;;;;;;;5013988;28;20100;-70
2022/01/26 04:25:06;;;;;;;41.13;21.35;;;;;;;;;;5012690;28;20123;-70
2022/01/26 04:29:59;;;;;;;46.75;21.85;;;;;;;;;;5013642;28;20050;-70
2022/01/26 04:32:25;;;;;;;42.22;21.02;;;;;;;;;;5013483;28;20096;-70
2022/01/26 04:34:52;;;;;;;39.22;20.88;;;;;;;;;;5013510;28;20460;-70
2022/01/26 04:40:10;;;;;;;39.42;19.00;;;;;;;;;;5013669;28;20054;-70
2022/01/26 04:43:01;;;;;;;41.72;19.77;;;;;;;;;;5013440;28;20085;-70
2022/01/26 04:45:28;;;;;;;40.72;19.60;;;;;;;;;;5013593;28;20057;-70
2022/01/26 04:47:54;;;;;;;44.13;21.63;;;;;;;;;;5013385;28;20054;-70
2022/01/26 04:50:21;;;;;;;40.30;19.17;;;;;;;;;;5013255;28;20457;-70
2022/01/26 04:52:48;;;;;;;38.83;19.95;;;;;;;;;;5013305;28;20143;-70
2022/01/26 04:55:15;;;;;;;39.28;19.25;;;;;;;;;;5013298;28;20456;-70
2022/01/26 04:57:41;;;;;;;37.85;20.27;;;;;;;;;;5012796;28;20046;-70
2022/01/26 05:00:13;;;;;;;38.92;19.85;;;;;;;;;;5013168;28;20056;-70
2022/01/26 05:02:40;;;;;;;37.80;18.95;;;;;;;;;;5013202;28;20100;-70
2022/01/26 05:05:07;;;;;;;39.25;19.83;;;;;;;;;;5013117;28;20456;-70
2022/01/26 05:07:33;;;;;;;36.28;17.77;;;;;;;;;;5012987;28;20080;-70
2022/01/26 05:10:02;;;;;;;38.38;18.90;;;;;;;;;;5012921;28;20089;-70
2022/01/26 05:12:28;;;;;;;36.00;18.58;;;;;;;;;;5012964;28;20080;-69
2022/01/26 05:14:55;;;;;;;36.88;17.90;;;;;;;;;;5012725;28;20498;-70
2022/01/26 05:17:23;;;;;;;36.95;19.30;;;;;;;;;;5012936;28;20050;-70
2022/01/26 05:19:54;;;;;;;;;;;;;;;;;;5012010;28;20049;-70
2022/01/26 05:22:21;;;;;;;39.08;19.25;;;;;;;;;;5012648;28;19976;-70
2022/01/26 05:24:47;;;;;;;41.15;20.65;;;;;;;;;;5012608;28;20053;-70
2022/01/26 05:27:14;;;;;;;39.15;19.17;;;;;;;;;;5011408;28;20084;-70
2022/01/26 05:29:42;;;;;;;40.40;20.45;;;;;;;;;;5012994;28;20046;-69
2022/01/26 05:32:08;;;;;;;40.10;19.95;;;;;;;;;;5012665;28;20045;-69
2022/01/26 05:34:34;;;;;;;38.70;19.92;;;;;;;;;;5012459;28;20041;-69
2022/01/26 05:37:01;;;;;;;37.60;18.95;;;;;;;;;;5012358;28;20065;-70
2022/01/26 05:39:27;;;;;;;37.72;19.30;;;;;;;;;;5012699;28;20104;-70
2022/01/26 05:41:54;;;;;;;40.60;19.48;;;;;;;;;;5012594;28;20108;-69
2022/01/26 05:44:20;;;;;;;36.50;19.55;;;;;;;;;;5012318;28;20407;-69
2022/01/26 05:46:49;;;;;;;38.53;18.88;;;;;;;;;;5012339;28;20045;-69
2022/01/26 05:49:19;;;;;;;33.88;17.45;;;;;;;;;;5012052;28;20081;-70
2022/01/26 05:51:46;;;;;;;40.78;18.83;;;;;;;;;;5012496;28;20085;-70
2022/01/26 05:54:13;;;;;;;33.67;18.23;;;;;;;;;;5012290;28;20086;-70
2022/01/26 05:56:42;;;;;;;34.20;17.90;;;;;;;;;;5012546;28;20311;-70
2022/01/26 05:59:09;;;;;;;33.35;17.92;;;;;;;;;;5012402;28;20077;-70
2022/01/26 06:01:35;;;;;;;31.77;17.30;;;;;;;;;;5012319;28;20081;-70
2022/01/26 06:04:02;;;;;;;36.17;18.10;;;;;;;;;;5012328;28;20141;-70
2022/01/26 06:06:29;;;;;;;36.50;17.45;;;;;;;;;;5012217;28;20046;-70
2022/01/26 06:08:55;;;;;;;34.38;17.25;;;;;;;;;;5011527;28;20054;-70
2022/01/26 06:11:22;;;;;;;33.30;17.40;;;;;;;;;;5011780;28;20097;-70
2022/01/26 06:13:48;;;;;;;34.90;16.77;;;;;;;;;;5011870;28;20101;-70
2022/01/26 06:16:16;;;;;;;36.10;17.45;;;;;;;;;;5011904;28;20046;-69
2022/01/26 06:18:44;;;;;;;36.20;18.45;;;;;;;;;;5011867;28;20046;-70
2022/01/26 06:21:10;;;;;;;35.33;17.85;;;;;;;;;;5010642;28;20413;-70
2022/01/26 06:23:36;;;;;;;37.03;18.23;;;;;;;;;;5011949;28;20046;-70
2022/01/26 06:26:03;;;;;;;33.90;18.90;;;;;;;;;;5012082;28;20088;-70
2022/01/26 06:28:30;;;;;;;38.03;18.98;;;;;;;;;;5011874;28;20355;-70
2022/01/26 06:30:59;;;;;;;38.30;19.27;;;;;;;;;;5011889;28;20107;-70
2022/01/26 06:33:29;;;;;;;36.28;17.95;;;;;;;;;;5011602;28;20050;-70
2022/01/26 06:35:57;;;;;;;33.63;17.90;;;;;;;;;;5012003;28;20045;-70
2022/01/26 06:38:28;;;;;;;;;;;;;;;;;;5011160;28;20050;-70
2022/01/26 06:40:54;;;;;;;36.75;17.58;;;;;;;;;;5011826;28;19929;-70
2022/01/26 06:43:23;;;;;;;38.35;18.20;;;;;;;;;;5011656;28;20497;-69
2022/01/26 06:45:55;;;;;;;32.58;17.73;;;;;;;;;;5010096;28;20052;-70
2022/01/26 06:48:43;;;;;;;34.85;17.40;;;;;;;;;;5010228;28;20045;-69
2022/01/26 06:51:10;;;;;;;35.58;18.05;;;;;;;;;;5011939;28;20124;-70
2022/01/26 06:53:36;;;;;;;37.05;18.52;;;;;;;;;;5011489;28;20050;-70
2022/01/26 06:56:03;;;;;;;35.67;17.27;;;;;;;;;;5011513;28;20096;-69
2022/01/26 06:58:29;;;;;;;32.25;18.08;;;;;;;;;;5011737;28;20100;-69
2022/01/26 07:00:57;;;;;;;34.97;17.38;;;;;;;;;;5011785;28;20081;-68
2022/01/26 07:03:24;;;;;;;32.25;17.60;;;;;;;;;;5010571;28;20096;-69
2022/01/26 07:05:50;;;;;;;33.57;18.07;;;;;;;;;;5010671;28;20235;-68
2022/01/26 07:08:17;;;;;;;35.25;17.92;;;;;;;;;;5009757;28;20453;-68
2022/01/26 07:10:45;;;;;;;38.65;18.27;;;;;;;;;;5010004;28;20498;-68
2022/01/26 07:13:11;;;;;;;37.67;19.23;;;;;;;;;;5010582;28;20054;-69
2022/01/26 07:21:28;;;;;;;36.40;17.45;;;;;;;;;;5011777;28;20046;-68
2022/01/26 07:23:55;;;;;;;33.20;17.00;;;;;;;;;;5012563;28;20572;-69
2022/01/26 07:26:24;;;;;;;32.35;18.38;;;;;;;;;;5013355;28;20128;-69
2022/01/26 07:28:52;;;;;;;31.10;17.42;;;;;;;;;;5015208;28;20092;-70
2022/01/26 07:31:18;;;;;;;33.95;18.05;;;;;;;;;;5014787;28;20556;-70
2022/01/26 07:33:44;;;;;;;31.73;18.60;;;;;;;;;;5014598;28;20409;-69
2022/01/26 07:36:11;;;;;;;31.33;17.25;;;;;;;;;;5014572;28;20086;-69
2022/01/26 07:38:37;;;;;;;31.30;16.60;;;;;;;;;;5014942;28;20054;-69
2022/01/26 07:41:04;;;;;;;31.48;16.35;;;;;;;;;;5014801;28;20053;-69
2022/01/26 07:43:31;;;;;;;31.27;17.17;;;;;;;;;;5014429;28;20120;-69
2022/01/26 07:45:57;;;;;;;35.25;18.55;;;;;;;;;;5014419;28;20085;-69
2022/01/26 07:48:24;;;;;;;33.38;18.02;;;;;;;;;;5013757;28;20061;-69
2022/01/26 07:50:51;;;;;;;38.55;18.52;;;;;;;;;;5013609;28;20081;-69
2022/01/26 07:53:18;;;;;;;34.22;17.50;;;;;;;;;;5014304;28;20552;-69
2022/01/26 07:55:44;;;;;;;32.60;18.50;;;;;;;;;;5014272;28;20054;-69
2022/01/26 07:58:11;;;;;;;33.30;18.75;;;;;;;;;;5014188;28;20088;-69
2022/01/26 08:00:38;;;;;;;35.17;19.45;;;;;;;;;;5013966;28;20513;-69
2022/01/26 08:03:04;;;;;;;33.28;18.13;;;;;;;;;;5012590;28;20517;-70
2022/01/26 08:05:31;;;;;;;32.42;17.95;;;;;;;;;;5014194;28;20050;-69
2022/01/26 08:07:57;;;;;;;32.00;17.92;;;;;;;;;;5014201;28;20088;-69
2022/01/26 08:10:24;;;;;;;35.95;18.35;;;;;;;;;;5013876;28;20537;-69
2022/01/26 08:12:50;;;;;;;36.03;18.80;;;;;;;;;;5014291;28;20376;-69
2022/01/26 08:15:23;;;;;;;33.63;18.65;;;;;;;;;;5014203;28;20125;-69
2022/01/26 08:17:49;;;;;;;34.72;17.90;;;;;;;;;;5014162;28;20123;-70
2022/01/26 08:20:16;;;;;;;35.63;18.25;;;;;;;;;;5013757;28;20050;-69
2022/01/26 08:22:42;;;;;;;37.00;18.75;;;;;;;;;;5014017;28;20084;-69
2022/01/26 08:25:10;;;;;;;34.35;18.88;;;;;;;;;;5013720;28;20057;-69
2022/01/26 08:27:41;;;;;;;35.03;20.60;;;;;;;;;;5014027;28;20452;-69
2022/01/26 08:30:12;;;;;;;35.15;18.75;;;;;;;;;;5013884;28;20061;-69
2022/01/26 08:32:39;;;;;;;35.05;20.17;;;;;;;;;;5013246;28;20050;-69
2022/01/26 08:35:06;;;;;;;34.08;19.17;;;;;;;;;;5013523;28;20054;-69
2022/01/26 08:37:32;;;;;;;33.30;19.77;;;;;;;;;;5013842;28;20097;-69
2022/01/26 08:39:59;;;;;;;38.72;18.98;;;;;;;;;;5013597;28;20124;-69
2022/01/26 08:42:25;;;;;;;33.42;18.92;;;;;;;;;;5013391;28;20045;-69
2022/01/26 08:44:52;;;;;;;37.80;19.20;;;;;;;;;;5013461;28;20073;-69
2022/01/26 08:47:18;;;;;;;30.92;20.00;;;;;;;;;;5013688;28;20112;-69
2022/01/26 08:49:45;;;;;;;34.00;19.65;;;;;;;;;;5013433;28;20472;-69
2022/01/26 08:52:11;;;;;;;34.92;19.05;;;;;;;;;;5013645;28;20468;-69
2022/01/26 08:54:38;;;;;;;30.67;18.42;;;;;;;;;;5013062;28;20082;-69
2022/01/26 08:57:04;;;;;;;32.38;18.42;;;;;;;;;;5013144;28;20120;-70
2022/01/26 08:59:31;;;;;;;31.20;18.67;;;;;;;;;;5013352;28;20046;-70
2022/01/26 09:01:57;;;;;;;29.98;18.55;;;;;;;;;;5013059;28;20509;-69
2022/01/26 09:04:24;;;;;;;28.90;18.40;;;;;;;;;;5013291;28;20077;-70
2022/01/26 09:07:01;;;;;;;25.52;17.42;;;;;;;;;;5013138;28;20042;-69
2022/01/26 09:09:31;;;;;;;29.08;16.20;;;;;;;;;;5013150;28;20053;-69
2022/01/26 09:12:00;;;;;;;23.52;16.40;;;;;;;;;;5012977;28;20115;-70
2022/01/26 09:14:28;;;;;;;37.05;24.17;;;;;;;;;;5012779;28;20045;-70
2022/01/26 09:16:55;;;;;;;31.55;20.20;;;;;;;;;;5011819;28;20069;-70
2022/01/26 09:19:30;;;;;;;25.20;17.93;;;;;;;;;;5013108;28;20086;-70
2022/01/26 09:22:02;;;;;;;30.35;17.60;;;;;;;;;;5012944;28;20100;-70
2022/01/26 09:24:30;;;;;;;29.70;19.33;;;;;;;;;;5012737;28;20552;-70
2022/01/26 09:26:57;;;;;;;30.17;19.15;;;;;;;;;;5012913;28;20461;-70
2022/01/26 09:29:24;;;;;;;27.37;17.97;;;;;;;;;;5012762;28;20108;-70
2022/01/26 09:31:50;;;;;;;28.57;17.90;;;;;;;;;;5012547;28;20314;-70
2022/01/26 09:34:18;;;;;;;33.47;22.87;;;;;;;;;;5012794;28;20132;-70
2022/01/26 09:36:44;;;;;;;30.30;21.40;;;;;;;;;;5012487;28;20555;-70
2022/01/26 09:39:15;;;;;;;28.20;18.77;;;;;;;;;;5012498;28;20096;-70
2022/01/26 09:41:41;;;;;;;29.45;19.85;;;;;;;;;;5012463;28;20050;-70
2022/01/26 09:44:13;;;;;;;30.92;20.98;;;;;;;;;;5011863;28;20061;-69
2022/01/26 09:46:40;;;;;;;27.48;18.63;;;;;;;;;;5012293;28;20054;-69
2022/01/26 09:49:07;;;;;;;33.33;24.33;;;;;;;;;;5012077;28;20057;-69
2022/01/26 09:51:40;;;;;;;31.60;20.38;;;;;;;;;;5012451;28;20287;-70
2022/01/26 09:54:10;;;;;;;31.02;20.35;;;;;;;;;;5011169;28;20071;-70
2022/01/26 09:56:37;;;;;;;33.33;20.27;;;;;;;;;;5012161;28;20042;-69
2022/01/26 09:59:04;;;;;;;31.92;18.58;;;;;;;;;;5012160;28;20053;-69
2022/01/26 10:01:40;;;;;;;30.33;18.40;;;;;;;;;;5012247;28;20096;-69
2022/01/26 10:04:18;;;;;;;30.70;17.65;;;;;;;;;;5012111;28;20076;-69
2022/01/26 10:06:49;;;;;;;30.23;19.02;;;;;;;;;;5012405;28;20077;-69
2022/01/26 10:09:40;;;;;;;29.20;18.85;;;;;;;;;;5012048;28;20053;-69
2022/01/26 10:17:36;;;;;;;31.65;17.65;;;;;;;;;;5011998;28;20050;-70
2022/01/26 10:20:04;;;;;;;25.77;17.55;;;;;;;;;;5011849;28;20053;-69
2022/01/26 10:22:32;;;;;;;26.08;15.82;;;;;;;;;;5012195;28;20050;-70
2022/01/26 10:25:19;;;;;;;24.63;16.23;;;;;;;;;;5011851;28;20100;-70
2022/01/26 10:28:04;;;;;;;24.73;15.32;;;;;;;;;;5011971;28;20141;-70
2022/01/26 10:30:32;;;;;;;24.40;16.30;;;;;;;;;;5011772;28;20077;-70
2022/01/26 10:32:59;;;;;;;26.85;16.30;;;;;;;;;;5011786;28;20054;-70
2022/01/26 10:35:25;;;;;;;25.67;15.48;;;;;;;;;;5011816;28;20045;-70
2022/01/26 10:37:53;;;;;;;21.50;15.13;;;;;;;;;;5011733;28;20073;-70
2022/01/26 10:40:23;;;;;;;24.10;15.98;;;;;;;;;;5011654;28;20046;-70
2022/01/26 10:43:11;;;;;;;24.58;15.85;;;;;;;;;;5011725;28;20124;-70
2022/01/26 10:46:00;;;;;;;21.33;15.10;;;;;;;;;;5011891;28;20504;-70
2022/01/26 10:53:47;;;;;;;22.25;15.32;;;;;;;;;;5011833;28;20050;-70
2022/01/26 10:56:14;;;;;;;21.27;15.27;;;;;;;;;;5015759;28;20108;-70
2022/01/26 10:58:41;;;;;;;21.52;14.65;;;;;;;;;;5015445;28;20092;-69
2022/01/26 11:01:08;;;;;;;22.75;15.40;;;;;;;;;;5015224;28;20049;-69
2022/01/26 11:03:35;;;;;;;21.30;14.95;;;;;;;;;;5015376;28;20120;-70
2022/01/26 11:06:05;;;;;;;20.75;14.77;;;;;;;;;;5015589;28;20054;-69
2022/01/26 11:08:36;;;;;;;20.67;14.02;;;;;;;;;;5001787;28;20053;-69
2022/01/26 11:11:03;;;;;;;20.08;12.43;;;;;;;;;;5015067;28;20050;-69
2022/01/26 11:13:33;;;;;;;19.60;13.10;;;;;;;;;;5015226;28;20049;-69
2022/01/26 11:16:07;;;;;;;19.02;12.95;;;;;;;;;;5015362;28;20054;-70
2022/01/26 11:18:44;;;;;;;21.67;13.75;;;;;;;;;;5014943;28;20041;-70
2022/01/26 11:21:15;;;;;;;17.15;12.88;;;;;;;;;;5013792;28;20360;-70
2022/01/26 11:23:41;;;;;;;18.48;12.85;;;;;;;;;;5015075;28;20042;-70
2022/01/26 11:26:20;;;;;;;18.40;13.35;;;;;;;;;;5014930;28;20061;-70
2022/01/26 11:28:47;;;;;;;18.33;12.85;;;;;;;;;;5014954;28;20104;-70
2022/01/26 11:31:17;;;;;;;21.13;13.40;;;;;;;;;;5014837;28;20445;-70
2022/01/26 11:34:04;;;;;;;16.52;13.00;;;;;;;;;;5014930;28;20161;-70
2022/01/26 11:36:32;;;;;;;17.40;13.48;;;;;;;;;;5014886;28;20050;-70
2022/01/26 11:46:59;;;;;;;20.08;13.05;;;;;;;;;;5014546;28;20481;-70
2022/01/26 11:49:33;;;;;;;19.58;12.50;;;;;;;;;;5014426;28;20057;-70
2022/01/26 11:52:00;;;;;;;20.00;12.27;;;;;;;;;;5014464;28;20120;-70
2022/01/26 11:54:55;;;;;;;18.52;12.30;;;;;;;;;;5014590;28;20139;-70
2022/01/26 11:57:36;;;;;;;16.30;12.00;;;;;;;;;;5014426;28;20072;-70
2022/01/26 12:00:05;;;;;;;17.92;12.68;;;;;;;;;;5014419;28;20053;-69
2022/01/26 12:05:13;;;;;;;25.33;13.98;;;;;;;;;;5000420;28;20089;-70
2022/01/26 12:07:50;;;;;;;18.15;13.48;;;;;;;;;;5014105;28;20131;-70
2022/01/26 12:10:26;;;;;;;18.02;12.65;;;;;;;;;;5014190;28;20065;-69
2022/01/26 12:12:59;;;;;;;18.77;13.20;;;;;;;;;;5014110;28;20054;-70
2022/01/26 12:15:28;;;;;;;17.63;12.15;;;;;;;;;;5014170;28;20096;-70
2022/01/26 12:34:41;;;;;;;16.75;12.32;;;;;;;;;;5013900;28;20081;-69
2022/01/26 12:37:21;;;;;;;18.67;12.75;;;;;;;;;;5013684;28;20054;-69
2022/01/26 12:42:56;;;;;;;16.45;11.75;;;;;;;;;;5013558;28;20042;-69
2022/01/26 12:45:44;;;;;;;16.70;11.27;;;;;;;;;;5013559;28;20478;-69
2022/01/26 12:48:11;;;;;;;17.88;11.73;;;;;;;;;;5013311;28;20498;-69
2022/01/26 12:50:39;;;;;;;18.07;12.33;;;;;;;;;;5013338;28;20057;-69
2022/01/26 12:53:06;;;;;;;18.48;12.55;;;;;;;;;;5013251;28;20093;-69
2022/01/26 12:55:35;;;;;;;17.05;11.40;;;;;;;;;;5013443;28;20124;-69
2022/01/26 12:58:02;;;;;;;18.58;11.45;;;;;;;;;;5012018;28;20099;-70
2022/01/26 13:00:57;;;;;;;17.52;11.43;;;;;;;;;;5013232;28;20502;-70
2022/01/26 13:03:28;;;;;;;17.05;12.23;;;;;;;;;;5012323;28;20042;-70
2022/01/26 13:06:03;;;;;;;19.52;11.93;;;;;;;;;;5013316;28;20461;-70
2022/01/26 13:08:42;;;;;;;17.67;12.35;;;;;;;;;;5013014;28;20096;-69
2022/01/26 13:11:08;;;;;;;17.42;12.95;;;;;;;;;;5012764;28;20081;-70
2022/01/26 13:13:35;;;;;;;15.75;11.27;;;;;;;;;;5011889;28;20815;-70
2022/01/26 13:16:13;;;;;;;18.50;12.05;;;;;;;;;;5013003;28;20054;-70
2022/01/26 13:21:56;;;;;;;17.88;12.45;;;;;;;;;;5012821;28;20046;-70
2022/01/26 13:27:20;;;;;;;15.60;11.80;;;;;;;;;;5012659;28;20112;-70
2022/01/26 13:38:50;;;;;;;14.70;10.75;;;;;;;;;;5012548;28;20442;-70
2022/01/26 13:54:24;;;;;;;15.82;10.27;;;;;;;;;;5012621;28;20049;-69
2022/01/26 13:59:26;;;;;;;16.13;10.57;;;;;;;;;;5012212;28;20050;-69
2022/01/26 14:01:53;;;;;;;15.90;10.48;;;;;;;;;;5012208;28;20489;-70
2022/01/26 14:04:20;;;;;;;15.77;10.37;;;;;;;;;;5012215;28;20048;-69
2022/01/26 14:06:47;;;;;;;12.25;8.98;;;;;;;;;;5012054;28;20798;-69
2022/01/26 14:09:14;;;;;;;23.52;17.30;;;;;;;;;;5012372;28;20057;-69
2022/01/26 14:11:42;;;;;;;15.55;9.57;;;;;;;;;;5011790;28;20112;-69
2022/01/26 14:14:10;;;;;;;14.73;10.15;;;;;;;;;;5011912;28;20505;-69
2022/01/26 14:16:40;;;;;;;14.85;9.80;;;;;;;;;;5011850;28;20053;-69
2022/01/26 14:19:25;;;;;;;15.38;10.63;;;;;;;;;;5012265;28;20073;-69
2022/01/26 14:22:18;;;;;;;14.27;9.95;;;;;;;;;;5011840;28;20042;-70
2022/01/26 14:27:17;;;;;;;14.70;9.85;;;;;;;;;;5012179;28;20046;-69
2022/01/26 14:33:00;;;;;;;14.25;9.10;;;;;;;;;;5018571;28;20085;-69
2022/01/26 14:35:45;;;;;;;15.82;10.20;;;;;;;;;;5018122;28;20482;-69
2022/01/26 15:33:22;;;;;;;21.25;16.30;;;;;;;;;;5018033;28;20127;-70
2022/01/26 15:49:30;;;;;;;13.95;9.13;;;;;;;;;;5014561;28;20054;-70
2022/01/26 15:52:04;;;;;;;12.10;8.85;;;;;;;;;;5014445;28;20074;-70
2022/01/26 15:57:54;;;;;;;13.30;10.88;;;;;;;;;;5014538;28;20077;-69
2022/01/26 16:06:24;;;;;;;15.13;10.98;;;;;;;;;;5014317;28;20096;-69
2022/01/26 16:16:35;;;;;;;17.00;11.25;;;;;;;;;;5013941;28;20065;-69
2022/01/26 16:38:44;;;;;;;16.20;11.43;;;;;;;;;;5012436;28;20123;-69
2022/01/26 18:38:44;;;;;;;28.80;15.45;;;;;;;;;;5011796;28;20081;-71
2022/01/26 18:50:03;;;;;;;50.40;27.67;;;;;;;;;;5011629;28;20050;-67
2022/01/26 18:52:33;;;;;;;35.03;18.90;;;;;;;;;;5011961;28;20049;-71
2022/01/26 18:55:00;;;;;;;42.22;24.67;;;;;;;;;;5010140;28;20057;-68
2022/01/26 18:57:27;;;;;;;32.95;20.92;;;;;;;;;;5011583;28;20458;-69
2022/01/26 18:59:53;;;;;;;32.35;17.98;;;;;;;;;;5011530;28;20581;-71
2022/01/26 19:02:23;;;;;;;32.40;17.25;;;;;;;;;;5011801;28;20088;-68
2022/01/26 19:05:07;;;;;;;32.15;16.98;;;;;;;;;;5011543;28;20081;-73
2022/01/26 19:07:34;;;;;;;32.30;18.27;;;;;;;;;;5012084;28;20054;-72
2022/01/26 19:10:01;;;;;;;30.00;17.20;;;;;;;;;;5011455;28;20062;-71
2022/01/26 19:12:31;;;;;;;35.47;19.13;;;;;;;;;;5011733;28;20108;-71
2022/01/26 19:15:02;;;;;;;32.17;18.20;;;;;;;;;;5010832;28;20060;-72
2022/01/26 19:17:38;;;;;;;30.67;17.88;;;;;;;;;;5014993;28;20108;-71
2022/01/26 19:20:28;;;;;;;30.98;18.48;;;;;;;;;;4997171;28;20046;-71
2022/01/26 19:25:32;;;;;;;33.38;18.30;;;;;;;;;;5014595;28;20100;-72
2022/01/26 19:28:46;;;;;;;34.15;18.17;;;;;;;;;;5013239;28;20060;-72
2022/01/26 19:52:13;;;;;;;28.48;16.63;;;;;;;;;;5013031;28;20050;-72
2022/01/26 19:54:41;;;;;;;28.63;16.70;;;;;;;;;;5026814;28;20058;-72
2022/01/26 19:57:08;;;;;;;26.92;16.30;;;;;;;;;;5012504;28;20041;-72
2022/01/26 19:59:35;;;;;;;30.27;16.17;;;;;;;;;;5013817;28;20085;-72
2022/01/26 20:02:02;;;;;;;29.80;16.43;;;;;;;;;;5014083;28;20050;-72
2022/01/26 20:04:31;;;;;;;28.38;16.33;;;;;;;;;;5009407;28;20049;-73
2022/01/26 20:07:03;;;;;;;28.73;15.52;;;;;;;;;;5012953;28;20139;-73
2022/01/26 20:09:36;;;;;;;28.10;16.08;;;;;;;;;;5013182;28;20133;-72
2022/01/26 20:12:06;;;;;;;30.25;18.05;;;;;;;;;;5010872;28;20057;-72
2022/01/26 20:14:34;;;;;;;29.92;16.08;;;;;;;;;;5013349;28;20081;-72
2022/01/26 20:17:05;;;;;;;26.73;15.20;;;;;;;;;;5013358;28;20100;-72
2022/01/26 20:19:32;;;;;;;25.50;15.60;;;;;;;;;;5013096;28;20046;-71
2022/01/26 20:21:58;;;;;;;25.52;15.18;;;;;;;;;;5012689;28;20498;-72
2022/01/26 20:24:25;;;;;;;27.23;14.52;;;;;;;;;;5012990;28;20452;-72
2022/01/26 20:26:54;;;;;;;24.77;14.93;;;;;;;;;;5012448;28;20489;-72
2022/01/26 20:29:30;;;;;;;28.67;15.65;;;;;;;;;;5012912;28;20501;-71
2022/01/26 20:31:56;;;;;;;28.52;14.35;;;;;;;;;;5013020;28;20427;-71
2022/01/26 20:34:23;;;;;;;25.67;14.27;;;;;;;;;;4995625;28;20129;-72
2022/01/26 20:36:49;;;;;;;27.08;14.85;;;;;;;;;;5012808;28;20470;-71
2022/01/26 20:39:16;;;;;;;29.02;15.48;;;;;;;;;;5011541;28;20093;-71
2022/01/26 20:41:42;;;;;;;30.15;15.63;;;;;;;;;;5013257;28;20045;-71
2022/01/26 20:44:08;;;;;;;27.33;15.35;;;;;;;;;;5012050;28;20045;-71
2022/01/26 20:46:35;;;;;;;31.90;16.25;;;;;;;;;;5012123;28;20116;-72
2022/01/26 20:49:02;;;;;;;25.85;15.00;;;;;;;;;;5011953;28;20103;-72
2022/01/26 20:51:29;;;;;;;27.40;15.60;;;;;;;;;;4997801;28;20490;-71
2022/01/26 20:53:55;;;;;;;27.15;15.30;;;;;;;;;;5012038;28;20100;-71
2022/01/26 20:56:22;;;;;;;25.77;14.93;;;;;;;;;;5012309;28;20394;-72
2022/01/26 20:58:49;;;;;;;26.98;14.45;;;;;;;;;;5012217;28;20045;-71
2022/01/26 21:01:15;;;;;;;27.38;15.10;;;;;;;;;;5012343;28;20375;-71
2022/01/26 21:03:42;;;;;;;29.35;16.17;;;;;;;;;;5011015;28;20529;-72
2022/01/26 21:06:09;;;;;;;28.77;16.52;;;;;;;;;;5011918;28;20057;-71
2022/01/26 21:08:38;;;;;;;29.60;15.48;;;;;;;;;;5010743;28;20050;-73
2022/01/26 21:11:05;;;;;;;26.35;16.23;;;;;;;;;;5008511;28;20066;-73
2022/01/26 21:13:33;;;;;;;30.95;16.75;;;;;;;;;;5011691;28;20425;-73
2022/01/26 21:16:01;;;;;;;31.35;17.98;;;;;;;;;;5012192;28;20081;-73
2022/01/26 21:18:30;;;;;;;30.33;16.90;;;;;;;;;;5011150;28;20097;-72
2022/01/26 21:20:58;;;;;;;28.45;18.20;;;;;;;;;;5011515;28;21054;-71
2022/01/26 21:23:25;;;;;;;38.70;23.00;;;;;;;;;;5011404;28;20096;-71
2022/01/26 21:25:52;;;;;;;35.35;22.70;;;;;;;;;;5010973;28;20555;-71
2022/01/26 21:28:19;;;;;;;34.53;20.02;;;;;;;;;;5011418;28;20060;-71
2022/01/26 21:30:45;;;;;;;33.03;20.52;;;;;;;;;;5010832;28;20070;-72
2022/01/26 21:33:13;;;;;;;32.40;19.65;;;;;;;;;;5010976;28;20050;-71
2022/01/26 21:35:40;;;;;;;38.97;26.38;;;;;;;;;;5011026;28;20132;-71